createdAt,value
2019-04-30T00:02:06.629Z,4.43
2019-04-30T00:07:15.506Z,5.50
2019-04-30T00:12:18.507Z,5.67
2019-04-30T00:17:23.344Z,7.33
2019-04-30T00:22:33.766Z,5.80
2019-04-30T00:27:35.634Z,6.90
2019-04-30T00:32:43.823Z,9.87
2019-04-30T00:37:52.005Z,7.50
2019-04-30T00:42:55.993Z,5.37
2019-04-30T00:48:01.916Z,4.67
2019-04-30T00:53:12.563Z,5.37
2019-04-30T00:58:17.675Z,5.93
2019-04-30T01:03:30.546Z,5.30
2019-04-30T01:08:35.848Z,5.60
2019-04-30T01:13:45.618Z,5.67
2019-04-30T01:18:49.156Z,5.67
2019-04-30T01:23:54.869Z,8.67
2019-04-30T01:29:02.077Z,8.47
2019-04-30T01:34:10.379Z,8.80
2019-04-30T01:39:13.418Z,7.20
2019-04-30T01:44:19.517Z,8.57
2019-04-30T01:49:26.658Z,10.77
2019-04-30T01:54:31.097Z,11.30
2019-04-30T01:59:48.574Z,10.80
2019-04-30T02:04:52.842Z,10.50
2019-04-30T02:09:58.759Z,9.80
2019-04-30T02:15:03.952Z,7.90
2019-04-30T02:20:08.955Z,7.73
2019-04-30T02:25:13.877Z,6.83
2019-04-30T02:30:20.843Z,9.63
2019-04-30T02:35:29.769Z,12.53
2019-04-30T02:40:39.332Z,14.97
2019-04-30T02:45:49.609Z,6.53
2019-04-30T02:50:55.734Z,6.03
2019-04-30T02:56:02.588Z,5.30
2019-04-30T03:01:07.081Z,5.13
2019-04-30T03:06:11.933Z,4.80
2019-04-30T03:11:16.787Z,5.10
2019-04-30T03:16:25.978Z,10.30
2019-04-30T03:21:50.269Z,9.90
2019-04-30T03:26:54.919Z,24.77
2019-04-30T03:32:02.632Z,31.37
2019-04-30T03:37:06.196Z,14.50
2019-04-30T03:42:11.818Z,11.00
2019-04-30T03:47:16.576Z,8.47
2019-04-30T03:52:21.367Z,8.47
2019-04-30T03:57:26.163Z,11.70
2019-04-30T04:02:32.990Z,6.07
2019-04-30T04:07:42.236Z,10.27
2019-04-30T04:12:49.614Z,7.10
2019-04-30T04:17:53.661Z,10.43
2019-04-30T04:22:59.834Z,7.67
2019-04-30T04:28:04.992Z,8.90
2019-04-30T04:33:10.227Z,19.67
2019-04-30T04:38:15.375Z,22.00
2019-04-30T04:43:20.571Z,6.97
2019-04-30T04:48:25.420Z,8.63
2019-04-30T04:53:30.612Z,9.53
2019-04-30T04:58:36.150Z,6.97
2019-04-30T05:03:41.069Z,7.07
2019-04-30T05:08:45.920Z,5.27
2019-04-30T05:13:50.705Z,5.50
2019-04-30T05:18:55.553Z,5.33
2019-04-30T05:24:00.397Z,5.27
2019-04-30T05:29:05.241Z,5.30
2019-04-30T05:34:10.274Z,5.20
2019-04-30T05:39:15.302Z,5.20
2019-04-30T05:44:20.697Z,5.50
2019-04-30T05:49:25.472Z,5.67
2019-04-30T05:54:30.327Z,5.77
2019-04-30T05:59:35.194Z,6.27
2019-04-30T06:04:40.041Z,6.13
2019-04-30T06:09:48.459Z,4.90
2019-04-30T06:14:58.996Z,5.33
2019-04-30T06:20:16.171Z,5.33
2019-04-30T06:25:13.186Z,5.60
2019-04-30T06:30:19.802Z,5.33
2019-04-30T06:35:25.383Z,5.37
2019-04-30T06:40:30.251Z,5.07
2019-04-30T06:45:38.773Z,4.70
2019-04-30T06:50:43.844Z,5.53
2019-04-30T06:55:49.226Z,5.30
2019-04-30T07:00:54.331Z,5.30
2019-04-30T07:05:59.336Z,5.60
2019-04-30T07:11:24.349Z,5.67
2019-04-30T07:16:29.838Z,5.00
2019-04-30T07:21:36.595Z,5.07
2019-04-30T07:26:41.538Z,5.30
2019-04-30T07:31:46.460Z,4.80
2019-04-30T07:37:10.400Z,5.50
2019-04-30T07:41:59.951Z,5.20
2019-04-30T07:47:04.435Z,6.93
2019-04-30T07:52:11.491Z,5.50
2019-04-30T07:57:15.655Z,4.73
2019-04-30T08:02:20.929Z,5.20
2019-04-30T08:07:26.007Z,4.73
2019-04-30T08:12:35.730Z,4.40
2019-04-30T08:17:38.903Z,4.53
2019-04-30T08:22:43.882Z,4.23
2019-04-30T08:27:49.873Z,4.90
2019-04-30T08:32:54.746Z,5.20
2019-04-30T08:37:59.610Z,4.50
2019-04-30T08:43:05.038Z,5.03
2019-04-30T08:48:09.891Z,3.90
2019-04-30T08:53:27.577Z,4.60
2019-04-30T08:58:23.860Z,4.67
2019-04-30T09:03:29.631Z,4.17
2019-04-30T09:08:36.812Z,4.33
2019-04-30T09:13:41.860Z,4.30
2019-04-30T09:18:46.917Z,5.20
2019-04-30T09:23:52.807Z,4.33
2019-04-30T09:28:59.275Z,4.97
2019-04-30T09:34:14.342Z,5.40
2019-04-30T09:39:11.262Z,5.20
2019-04-30T09:44:16.228Z,5.20
2019-04-30T09:49:21.158Z,5.67
2019-04-30T09:54:26.014Z,4.80
2019-04-30T09:59:31.578Z,5.93
2019-04-30T10:04:36.659Z,5.73
2019-04-30T10:09:41.977Z,6.70
2019-04-30T10:14:46.832Z,6.90
2019-04-30T10:19:51.692Z,5.97
2019-04-30T10:24:56.542Z,6.77
2019-04-30T10:30:01.392Z,5.40
2019-04-30T10:35:07.345Z,5.27
2019-04-30T10:40:12.329Z,5.90
2019-04-30T10:45:18.610Z,4.33
2019-04-30T10:50:24.669Z,3.73
2019-04-30T10:55:31.114Z,4.33
2019-04-30T11:00:49.717Z,3.60
2019-04-30T11:05:55.321Z,4.30
2019-04-30T11:11:00.257Z,4.30
2019-04-30T11:16:12.622Z,3.90
2019-04-30T11:21:13.178Z,3.80
2019-04-30T11:26:18.627Z,3.70
2019-04-30T11:31:25.979Z,3.27
2019-04-30T11:36:31.074Z,3.77
2019-04-30T11:41:35.933Z,3.60
2019-04-30T11:47:09.364Z,3.30
2019-04-30T11:52:14.278Z,3.70
2019-04-30T11:57:19.203Z,3.70
2019-04-30T12:02:25.720Z,3.80
2019-04-30T12:07:34.912Z,3.20
2019-04-30T12:12:39.736Z,3.90
2019-04-30T12:17:44.587Z,3.23
2019-04-30T12:22:50.005Z,3.50
2019-04-30T12:27:54.775Z,3.50
2019-04-30T12:32:59.604Z,4.00
2019-04-30T12:38:04.442Z,3.50
2019-04-30T12:43:10.016Z,3.30
2019-04-30T12:48:18.611Z,4.20
2019-04-30T12:53:27.585Z,3.10
2019-04-30T12:58:32.489Z,3.80
2019-04-30T13:03:37.324Z,4.10
2019-04-30T13:08:42.606Z,3.33
2019-04-30T13:13:49.970Z,3.10
2019-04-30T13:18:54.261Z,3.30
2019-04-30T13:23:59.087Z,4.23
2019-04-30T13:29:11.899Z,5.30
2019-04-30T13:34:34.545Z,3.40
2019-04-30T13:39:53.030Z,3.13
2019-04-30T13:44:56.504Z,3.43
2019-04-30T13:50:01.350Z,3.73
2019-04-30T13:55:10.736Z,3.47
2019-04-30T14:00:18.781Z,3.47
2019-04-30T14:05:23.681Z,3.00
2019-04-30T14:10:30.248Z,3.53
2019-04-30T14:15:35.753Z,3.37
2019-04-30T14:20:40.576Z,3.20
2019-04-30T14:25:55.917Z,4.23
2019-04-30T14:30:51.859Z,3.50
2019-04-30T14:35:56.681Z,3.40
2019-04-30T14:41:02.194Z,3.00
2019-04-30T14:46:25.670Z,3.37
2019-04-30T14:51:31.001Z,2.77
2019-04-30T14:56:52.747Z,2.60
2019-04-30T15:02:01.948Z,3.30
2019-04-30T15:07:06.791Z,3.50
2019-04-30T15:12:11.608Z,2.87
2019-04-30T15:17:16.447Z,3.13
2019-04-30T15:22:21.280Z,3.07
2019-04-30T15:27:26.105Z,3.10
2019-04-30T15:32:31.019Z,2.77
2019-04-30T15:37:38.565Z,2.97
2019-04-30T15:42:45.297Z,3.70
2019-04-30T15:47:50.150Z,2.87
2019-04-30T15:52:54.983Z,2.93
2019-04-30T15:58:10.566Z,2.57
2019-04-30T16:03:19.743Z,3.30
2019-04-30T16:08:29.259Z,3.20
2019-04-30T16:13:51.962Z,2.83
2019-04-30T16:18:58.686Z,4.30
2019-04-30T16:24:03.522Z,2.67
2019-04-30T16:29:09.925Z,2.63
2019-04-30T16:34:15.690Z,3.37
2019-04-30T16:39:20.523Z,4.37
2019-04-30T16:44:25.354Z,3.80
2019-04-30T16:49:30.196Z,3.43
2019-04-30T16:54:35.123Z,3.53
2019-04-30T16:59:41.531Z,3.80
2019-04-30T17:04:57.196Z,5.57
2019-04-30T17:10:18.903Z,4.47
2019-04-30T17:15:25.611Z,4.30
2019-04-30T17:20:30.448Z,4.20
2019-04-30T17:25:35.280Z,4.70
2019-04-30T17:30:40.197Z,4.57
2019-04-30T17:35:45.050Z,3.40
2019-04-30T17:40:49.981Z,3.70
2019-04-30T17:45:54.874Z,3.90
2019-04-30T17:50:59.737Z,3.70
2019-04-30T17:56:04.962Z,3.80
2019-04-30T18:01:10.941Z,5.37
2019-04-30T18:06:15.868Z,6.70
2019-04-30T18:11:20.823Z,4.47
2019-04-30T18:16:25.764Z,6.37
2019-04-30T18:21:34.976Z,5.53
2019-04-30T18:26:47.446Z,5.43
2019-04-30T18:31:52.376Z,5.67
2019-04-30T18:36:59.214Z,4.90
2019-04-30T18:42:03.713Z,15.47
2019-04-30T18:47:09.019Z,4.63
2019-04-30T18:52:14.100Z,5.77
2019-04-30T18:57:19.031Z,5.23
2019-04-30T19:02:23.880Z,6.07
2019-04-30T19:07:30.857Z,5.80
2019-04-30T19:12:38.995Z,5.50
2019-04-30T19:17:54.430Z,5.73
2019-04-30T19:22:59.342Z,4.50
2019-04-30T19:28:12.133Z,5.27
2019-04-30T19:33:10.629Z,4.63
2019-04-30T19:38:15.480Z,4.40
2019-04-30T19:43:20.333Z,7.53
2019-04-30T19:48:26.607Z,8.03
2019-04-30T19:53:31.391Z,6.87
2019-04-30T19:58:50.117Z,5.53
2019-04-30T20:03:44.600Z,5.73
2019-04-30T20:08:49.544Z,6.23
2019-04-30T20:13:54.432Z,5.97
2019-04-30T20:18:59.292Z,6.27
2019-04-30T20:24:04.273Z,5.50
2019-04-30T20:29:11.754Z,11.83
2019-04-30T20:34:16.595Z,13.43
2019-04-30T20:39:23.494Z,38.83
2019-04-30T20:44:29.072Z,33.43
2019-04-30T20:49:34.172Z,14.23
2019-04-30T20:54:39.075Z,20.10
2019-04-30T20:59:44.030Z,17.13
2019-04-30T21:04:48.868Z,14.33
2019-04-30T21:09:53.732Z,16.77
2019-04-30T21:14:59.610Z,20.53
2019-04-30T21:20:09.660Z,19.30
2019-04-30T21:25:13.978Z,19.47
2019-04-30T21:30:18.824Z,18.10
2019-04-30T21:35:25.369Z,16.60
2019-04-30T21:40:30.283Z,19.07
2019-04-30T21:45:35.136Z,14.07
2019-04-30T21:50:40.232Z,18.03
2019-04-30T21:55:45.078Z,17.67
2019-04-30T22:00:54.585Z,17.00
2019-04-30T22:05:59.495Z,18.70
2019-04-30T22:11:04.407Z,18.83
2019-04-30T22:16:09.245Z,18.37
2019-04-30T22:21:14.086Z,9.10
2019-04-30T22:26:18.855Z,7.13
2019-04-30T22:31:23.690Z,6.80
2019-04-30T22:36:35.922Z,7.07
2019-04-30T22:41:40.750Z,8.00
2019-04-30T22:46:45.576Z,5.73
2019-04-30T22:51:50.621Z,6.17
2019-04-30T22:56:55.449Z,5.17
2019-04-30T23:02:05.065Z,4.70
2019-04-30T23:07:09.898Z,5.37
2019-04-30T23:12:14.717Z,4.70
2019-04-30T23:17:19.486Z,4.87
2019-04-30T23:22:24.259Z,4.63
2019-04-30T23:27:29.090Z,4.53
2019-04-30T23:32:33.943Z,4.37
2019-04-30T23:37:38.778Z,4.83
2019-04-30T23:42:43.532Z,5.23
2019-04-30T23:47:48.365Z,4.77
2019-04-30T23:52:53.261Z,4.33
2019-04-30T23:57:58.023Z,5.17
